createdAt,value
2023-01-28T00:06:13.703Z,99063.56
2023-01-28T00:16:41.401Z,99057.96
2023-01-28T00:27:09.015Z,99062.81
2023-01-28T00:37:37.007Z,99056.79
2023-01-28T00:48:04.606Z,99059.28
2023-01-28T00:58:32.190Z,99056.70
2023-01-28T01:08:59.690Z,99058.28
2023-01-28T01:19:28.455Z,99063.02
2023-01-28T01:29:56.178Z,99076.29
2023-01-28T01:40:23.724Z,99078.84
2023-01-28T01:50:56.319Z,99084.70
2023-01-28T02:01:27.334Z,99088.36
2023-01-28T02:11:57.988Z,99097.15
2023-01-28T02:22:44.511Z,99093.02
2023-01-28T02:33:18.065Z,99083.73
2023-01-28T02:43:47.804Z,99083.64
2023-01-28T02:54:21.569Z,99095.05
2023-01-28T03:04:55.813Z,99091.24
2023-01-28T03:15:44.969Z,99096.23
2023-01-28T03:26:34.032Z,99089.69
2023-01-28T03:37:02.172Z,99097.05
2023-01-28T03:47:31.381Z,99102.16
2023-01-28T03:57:58.974Z,99105.81
2023-01-28T04:08:27.096Z,99108.63
2023-01-28T04:18:54.645Z,99108.02
2023-01-28T04:29:22.183Z,99107.95
2023-01-28T04:39:49.725Z,99105.75
2023-01-28T04:50:17.921Z,99115.52
2023-01-28T05:00:45.472Z,99119.30
2023-01-28T05:11:13.179Z,99137.14
2023-01-28T05:21:40.740Z,99139.13
2023-01-28T05:32:08.744Z,99134.34
2023-01-28T05:42:36.282Z,99150.41
2023-01-28T05:53:06.166Z,99158.02
2023-01-28T06:03:33.775Z,99172.10
2023-01-28T06:14:01.590Z,99188.14
2023-01-28T06:24:29.272Z,99203.23
2023-01-28T06:34:57.597Z,99213.69
2023-01-28T06:45:25.256Z,99223.36
2023-01-28T06:55:52.751Z,99230.59
2023-01-28T07:06:20.471Z,99237.74
2023-01-28T07:16:48.104Z,99240.83
2023-01-28T07:27:16.018Z,99254.18
2023-01-28T07:37:43.655Z,99256.69
2023-01-28T07:48:13.963Z,99259.73
2023-01-28T07:58:41.507Z,99268.60
2023-01-28T08:09:09.732Z,99272.45
2023-01-28T08:19:37.336Z,99278.14
2023-01-28T08:30:05.210Z,99286.66
2023-01-28T08:40:33.179Z,99288.05
2023-01-28T08:51:02.560Z,99296.35
2023-01-28T09:01:30.523Z,99301.64
2023-01-28T09:11:58.254Z,99308.92
2023-01-28T09:22:25.894Z,99308.54
2023-01-28T09:32:54.865Z,99318.05
2023-01-28T09:43:42.346Z,99316.42
2023-01-28T09:54:23.841Z,99316.34
2023-01-28T10:05:00.083Z,99312.42
2023-01-28T10:15:50.739Z,99304.55
2023-01-28T10:26:25.452Z,99302.06
2023-01-28T10:36:53.442Z,99304.36
2023-01-28T10:47:30.911Z,99310.70
2023-01-28T10:57:59.307Z,99313.66
2023-01-28T11:08:28.209Z,99310.52
2023-01-28T11:19:02.154Z,99309.48
2023-01-28T11:29:34.013Z,99302.66
2023-01-28T11:40:20.080Z,99298.17
2023-01-28T11:50:58.996Z,99295.58
2023-01-28T12:01:34.996Z,99288.77
2023-01-28T12:12:18.212Z,99285.90
2023-01-28T12:23:10.745Z,99283.34
2023-01-28T12:34:00.983Z,99275.86
2023-01-28T12:44:34.910Z,99275.08
2023-01-28T12:55:06.469Z,99283.69
2023-01-28T13:05:40.653Z,99293.23
2023-01-28T13:16:11.579Z,99296.42
2023-01-28T13:26:47.180Z,99301.63
2023-01-28T13:37:30.273Z,99310.55
2023-01-28T13:48:03.882Z,99313.16
2023-01-28T13:59:09.477Z,99321.07
2023-01-28T14:10:04.812Z,99324.27
2023-01-28T14:20:37.986Z,99327.78
2023-01-28T14:31:12.214Z,99336.90
2023-01-28T14:41:41.262Z,99337.58
2023-01-28T14:52:26.410Z,99335.07
2023-01-28T15:02:54.371Z,99348.45
2023-01-28T15:13:33.647Z,99357.44
2023-01-28T15:24:03.457Z,99360.92
2023-01-28T15:34:31.307Z,99369.58
2023-01-28T15:44:59.835Z,99375.78
2023-01-28T15:55:38.012Z,99384.35
2023-01-28T16:06:09.794Z,99399.62
2023-01-28T16:16:39.610Z,99404.13
2023-01-28T16:27:20.723Z,99406.10
2023-01-28T16:37:49.401Z,99409.92
2023-01-28T16:48:16.988Z,99412.07
2023-01-28T16:58:46.886Z,99419.65
2023-01-28T17:09:15.419Z,99422.69
2023-01-28T17:19:42.969Z,99430.61
2023-01-28T17:30:13.085Z,99432.72
2023-01-28T17:40:40.980Z,99438.46
2023-01-28T17:51:08.875Z,99451.45
2023-01-28T18:01:37.447Z,99455.98
2023-01-28T18:12:05.416Z,99465.85
2023-01-28T18:22:33.273Z,99470.48
2023-01-28T18:33:00.816Z,99471.05
2023-01-28T18:43:29.047Z,99478.02
2023-01-28T18:53:59.165Z,99473.06
2023-01-28T19:04:26.701Z,99474.46
2023-01-28T19:14:54.318Z,99483.48
2023-01-28T19:25:21.969Z,99476.85
2023-01-28T19:35:55.554Z,99490.30
2023-01-28T19:46:23.343Z,99493.12
2023-01-28T19:56:50.951Z,99493.19
2023-01-28T20:07:18.437Z,99500.86
2023-01-28T20:17:46.191Z,99505.16
2023-01-28T20:28:13.862Z,99514.56
2023-01-28T20:38:43.435Z,99521.33
2023-01-28T20:49:12.303Z,99520.42
2023-01-28T20:59:39.848Z,99531.27
2023-01-28T21:10:08.323Z,99536.52
2023-01-28T21:20:36.546Z,99539.48
2023-01-28T21:31:12.000Z,99547.14
2023-01-28T21:41:39.709Z,99561.20
2023-01-28T21:52:07.635Z,99574.26
2023-01-28T22:02:37.127Z,99577.12
2023-01-28T22:13:04.773Z,99573.16
2023-01-28T22:23:32.376Z,99569.04
2023-01-28T22:34:00.272Z,99563.79
2023-01-28T22:44:27.808Z,99577.08
2023-01-28T22:54:55.398Z,99588.56
2023-01-28T23:05:22.939Z,99589.84
2023-01-28T23:16:09.329Z,99587.63
2023-01-28T23:26:36.939Z,99585.45
2023-01-28T23:37:05.878Z,99578.84
2023-01-28T23:47:33.896Z,99574.84
2023-01-28T23:58:01.359Z,99569.85
